sensor_id;sensor_type;location;lat;lon;timestamp;temperature;humidity
9118;DHT22;4594;50.994;7.126;2024-03-22T00:01:57;13.20;43.30
9118;DHT22;4594;50.994;7.126;2024-03-22T00:04:23;13.10;43.30
9118;DHT22;4594;50.994;7.126;2024-03-22T00:06:49;13.20;43.40
9118;DHT22;4594;50.994;7.126;2024-03-22T00:09:16;13.10;43.40
9118;DHT22;4594;50.994;7.126;2024-03-22T00:11:43;13.10;43.40
9118;DHT22;4594;50.994;7.126;2024-03-22T00:14:10;13.10;43.50
9118;DHT22;4594;50.994;7.126;2024-03-22T00:16:36;13.10;43.60
9118;DHT22;4594;50.994;7.126;2024-03-22T00:19:03;13.10;43.60
9118;DHT22;4594;50.994;7.126;2024-03-22T00:21:29;13.10;43.70
9118;DHT22;4594;50.994;7.126;2024-03-22T00:23:55;13.10;43.70
9118;DHT22;4594;50.994;7.126;2024-03-22T00:26:21;13.10;43.80
9118;DHT22;4594;50.994;7.126;2024-03-22T00:28:47;13.20;43.90
9118;DHT22;4594;50.994;7.126;2024-03-22T00:31:13;13.20;44.00
9118;DHT22;4594;50.994;7.126;2024-03-22T00:33:39;13.20;43.90
9118;DHT22;4594;50.994;7.126;2024-03-22T00:36:05;13.20;43.90
9118;DHT22;4594;50.994;7.126;2024-03-22T00:38:31;13.20;44.00
9118;DHT22;4594;50.994;7.126;2024-03-22T00:40:58;13.20;43.90
9118;DHT22;4594;50.994;7.126;2024-03-22T00:43:24;13.20;44.00
9118;DHT22;4594;50.994;7.126;2024-03-22T00:45:49;13.30;44.10
9118;DHT22;4594;50.994;7.126;2024-03-22T00:48:15;13.30;44.00
9118;DHT22;4594;50.994;7.126;2024-03-22T00:50:41;13.30;44.00
9118;DHT22;4594;50.994;7.126;2024-03-22T00:53:07;13.30;44.00
9118;DHT22;4594;50.994;7.126;2024-03-22T00:55:33;13.40;44.10
9118;DHT22;4594;50.994;7.126;2024-03-22T00:57:59;13.30;44.10
9118;DHT22;4594;50.994;7.126;2024-03-22T01:00:25;13.30;44.10
9118;DHT22;4594;50.994;7.126;2024-03-22T01:02:51;13.30;44.10
9118;DHT22;4594;50.994;7.126;2024-03-22T01:05:17;13.30;44.00
9118;DHT22;4594;50.994;7.126;2024-03-22T01:07:43;13.30;44.10
9118;DHT22;4594;50.994;7.126;2024-03-22T01:10:09;13.30;44.10
9118;DHT22;4594;50.994;7.126;2024-03-22T01:12:36;13.30;44.10
9118;DHT22;4594;50.994;7.126;2024-03-22T01:15:02;13.30;44.10
9118;DHT22;4594;50.994;7.126;2024-03-22T01:17:28;13.30;44.10
9118;DHT22;4594;50.994;7.126;2024-03-22T01:19:54;13.30;44.10
9118;DHT22;4594;50.994;7.126;2024-03-22T01:22:20;14.00;44.60
9118;DHT22;4594;50.994;7.126;2024-03-22T01:24:45;13.40;44.20
9118;DHT22;4594;50.994;7.126;2024-03-22T01:27:11;13.40;44.20
9118;DHT22;4594;50.994;7.126;2024-03-22T01:29:37;13.40;44.20
9118;DHT22;4594;50.994;7.126;2024-03-22T01:32:03;13.30;44.10
9118;DHT22;4594;50.994;7.126;2024-03-22T01:34:29;13.30;44.20
9118;DHT22;4594;50.994;7.126;2024-03-22T01:36:55;13.30;44.20
9118;DHT22;4594;50.994;7.126;2024-03-22T01:39:21;13.30;44.20
9118;DHT22;4594;50.994;7.126;2024-03-22T01:41:50;13.40;44.30
9118;DHT22;4594;50.994;7.126;2024-03-22T01:44:16;13.20;44.10
9118;DHT22;4594;50.994;7.126;2024-03-22T01:46:44;13.40;44.30
9118;DHT22;4594;50.994;7.126;2024-03-22T01:49:12;13.30;44.20
9118;DHT22;4594;50.994;7.126;2024-03-22T01:51:40;13.40;44.20
9118;DHT22;4594;50.994;7.126;2024-03-22T01:54:09;13.40;44.30
9118;DHT22;4594;50.994;7.126;2024-03-22T01:56:37;13.40;44.20
9118;DHT22;4594;50.994;7.126;2024-03-22T01:59:05;13.40;44.20
9118;DHT22;4594;50.994;7.126;2024-03-22T02:01:32;13.40;44.30
9118;DHT22;4594;50.994;7.126;2024-03-22T02:03:58;13.40;44.30
9118;DHT22;4594;50.994;7.126;2024-03-22T02:06:24;13.40;44.30
9118;DHT22;4594;50.994;7.126;2024-03-22T02:08:49;13.40;44.30
9118;DHT22;4594;50.994;7.126;2024-03-22T02:11:15;13.40;44.30
9118;DHT22;4594;50.994;7.126;2024-03-22T02:13:41;13.50;44.40
9118;DHT22;4594;50.994;7.126;2024-03-22T02:16:08;13.40;44.30
9118;DHT22;4594;50.994;7.126;2024-03-22T02:18:34;13.40;44.30
9118;DHT22;4594;50.994;7.126;2024-03-22T02:21:00;13.40;44.30
9118;DHT22;4594;50.994;7.126;2024-03-22T02:23:36;13.50;44.40
9118;DHT22;4594;50.994;7.126;2024-03-22T02:26:03;13.40;44.10
9118;DHT22;4594;50.994;7.126;2024-03-22T02:28:30;13.40;44.30
9118;DHT22;4594;50.994;7.126;2024-03-22T02:31:01;13.40;44.30
9118;DHT22;4594;50.994;7.126;2024-03-22T02:33:27;13.40;44.30
9118;DHT22;4594;50.994;7.126;2024-03-22T02:35:53;13.60;44.50
9118;DHT22;4594;50.994;7.126;2024-03-22T02:38:19;13.50;44.50
9118;DHT22;4594;50.994;7.126;2024-03-22T02:40:46;13.40;44.40
9118;DHT22;4594;50.994;7.126;2024-03-22T02:43:13;13.50;44.50
9118;DHT22;4594;50.994;7.126;2024-03-22T02:45:39;13.50;44.50
9118;DHT22;4594;50.994;7.126;2024-03-22T02:48:05;13.50;44.80
9118;DHT22;4594;50.994;7.126;2024-03-22T02:50:35;13.50;44.50
9118;DHT22;4594;50.994;7.126;2024-03-22T02:53:02;13.50;44.40
9118;DHT22;4594;50.994;7.126;2024-03-22T02:55:28;13.50;44.50
9118;DHT22;4594;50.994;7.126;2024-03-22T02:57:55;13.50;44.50
9118;DHT22;4594;50.994;7.126;2024-03-22T03:00:21;13.50;44.50
9118;DHT22;4594;50.994;7.126;2024-03-22T03:02:47;13.50;44.50
9118;DHT22;4594;50.994;7.126;2024-03-22T03:05:12;13.50;44.50
9118;DHT22;4594;50.994;7.126;2024-03-22T03:07:38;13.50;44.50
9118;DHT22;4594;50.994;7.126;2024-03-22T03:10:04;13.60;44.60
9118;DHT22;4594;50.994;7.126;2024-03-22T03:12:30;13.60;44.60
9118;DHT22;4594;50.994;7.126;2024-03-22T03:14:56;13.60;44.60
9118;DHT22;4594;50.994;7.126;2024-03-22T03:17:21;13.60;44.60
9118;DHT22;4594;50.994;7.126;2024-03-22T03:19:48;13.60;44.60
9118;DHT22;4594;50.994;7.126;2024-03-22T03:22:14;13.60;44.60
9118;DHT22;4594;50.994;7.126;2024-03-22T03:24:40;13.60;44.60
9118;DHT22;4594;50.994;7.126;2024-03-22T03:27:06;13.60;44.70
9118;DHT22;4594;50.994;7.126;2024-03-22T03:29:32;13.70;44.70
9118;DHT22;4594;50.994;7.126;2024-03-22T03:31:58;13.70;44.80
9118;DHT22;4594;50.994;7.126;2024-03-22T03:34:24;13.70;44.80
9118;DHT22;4594;50.994;7.126;2024-03-22T03:36:49;13.70;44.80
9118;DHT22;4594;50.994;7.126;2024-03-22T03:39:15;13.60;44.70
9118;DHT22;4594;50.994;7.126;2024-03-22T03:41:41;13.60;45.00
9118;DHT22;4594;50.994;7.126;2024-03-22T03:44:06;13.60;45.20
9118;DHT22;4594;50.994;7.126;2024-03-22T03:46:32;13.60;45.40
9118;DHT22;4594;50.994;7.126;2024-03-22T03:48:58;13.60;45.50
9118;DHT22;4594;50.994;7.126;2024-03-22T03:51:23;13.60;45.60
9118;DHT22;4594;50.994;7.126;2024-03-22T03:53:49;13.60;45.80
9118;DHT22;4594;50.994;7.126;2024-03-22T03:56:15;13.60;46.00
9118;DHT22;4594;50.994;7.126;2024-03-22T03:58:40;13.50;46.00
9118;DHT22;4594;50.994;7.126;2024-03-22T04:01:07;13.60;46.20
9118;DHT22;4594;50.994;7.126;2024-03-22T04:03:34;13.50;46.40
9118;DHT22;4594;50.994;7.126;2024-03-22T04:06:00;13.50;46.30
9118;DHT22;4594;50.994;7.126;2024-03-22T04:08:27;13.50;46.40
9118;DHT22;4594;50.994;7.126;2024-03-22T04:10:57;13.50;46.50
9118;DHT22;4594;50.994;7.126;2024-03-22T04:13:23;13.50;46.50
9118;DHT22;4594;50.994;7.126;2024-03-22T04:15:50;13.50;46.70
9118;DHT22;4594;50.994;7.126;2024-03-22T04:18:16;13.40;46.70
9118;DHT22;4594;50.994;7.126;2024-03-22T04:20:42;13.50;46.80
9118;DHT22;4594;50.994;7.126;2024-03-22T04:23:11;13.40;46.80
9118;DHT22;4594;50.994;7.126;2024-03-22T04:25:36;13.40;46.80
9118;DHT22;4594;50.994;7.126;2024-03-22T04:28:02;13.40;46.90
9118;DHT22;4594;50.994;7.126;2024-03-22T04:30:28;13.40;46.80
9118;DHT22;4594;50.994;7.126;2024-03-22T04:32:54;13.30;46.70
9118;DHT22;4594;50.994;7.126;2024-03-22T04:35:19;13.40;46.80
9118;DHT22;4594;50.994;7.126;2024-03-22T04:37:45;13.30;46.60
9118;DHT22;4594;50.994;7.126;2024-03-22T04:40:11;13.30;46.60
9118;DHT22;4594;50.994;7.126;2024-03-22T04:42:37;13.30;46.60
9118;DHT22;4594;50.994;7.126;2024-03-22T04:45:03;13.30;46.70
9118;DHT22;4594;50.994;7.126;2024-03-22T04:47:29;13.30;46.80
9118;DHT22;4594;50.994;7.126;2024-03-22T04:49:54;13.30;46.80
9118;DHT22;4594;50.994;7.126;2024-03-22T04:52:20;13.30;46.90
9118;DHT22;4594;50.994;7.126;2024-03-22T04:54:46;13.30;46.90
9118;DHT22;4594;50.994;7.126;2024-03-22T04:57:12;13.30;46.80
9118;DHT22;4594;50.994;7.126;2024-03-22T04:59:38;13.30;46.80
9118;DHT22;4594;50.994;7.126;2024-03-22T05:02:04;13.30;46.80
9118;DHT22;4594;50.994;7.126;2024-03-22T05:04:30;13.30;46.70
9118;DHT22;4594;50.994;7.126;2024-03-22T05:06:56;13.30;46.70
9118;DHT22;4594;50.994;7.126;2024-03-22T05:09:21;13.30;46.70
9118;DHT22;4594;50.994;7.126;2024-03-22T05:11:47;13.30;46.70
9118;DHT22;4594;50.994;7.126;2024-03-22T05:14:16;13.30;46.70
9118;DHT22;4594;50.994;7.126;2024-03-22T05:16:43;13.30;46.80
9118;DHT22;4594;50.994;7.126;2024-03-22T05:19:09;13.30;46.80
9118;DHT22;4594;50.994;7.126;2024-03-22T05:21:35;13.30;46.80
9118;DHT22;4594;50.994;7.126;2024-03-22T05:24:00;13.30;46.80
9118;DHT22;4594;50.994;7.126;2024-03-22T05:26:26;13.30;46.90
9118;DHT22;4594;50.994;7.126;2024-03-22T05:28:52;13.30;46.90
9118;DHT22;4594;50.994;7.126;2024-03-22T05:31:17;13.40;47.00
9118;DHT22;4594;50.994;7.126;2024-03-22T05:33:43;13.40;47.00
9118;DHT22;4594;50.994;7.126;2024-03-22T05:36:09;13.40;47.00
9118;DHT22;4594;50.994;7.126;2024-03-22T05:38:34;13.40;47.00
9118;DHT22;4594;50.994;7.126;2024-03-22T05:41:04;13.80;47.30
9118;DHT22;4594;50.994;7.126;2024-03-22T05:43:30;13.40;46.90
9118;DHT22;4594;50.994;7.126;2024-03-22T05:45:55;13.40;47.10
9118;DHT22;4594;50.994;7.126;2024-03-22T05:48:21;13.40;47.10
9118;DHT22;4594;50.994;7.126;2024-03-22T05:50:46;13.40;47.10
9118;DHT22;4594;50.994;7.126;2024-03-22T05:53:12;13.40;47.10
9118;DHT22;4594;50.994;7.126;2024-03-22T05:55:38;13.50;47.30
9118;DHT22;4594;50.994;7.126;2024-03-22T05:58:03;13.40;47.30
9118;DHT22;4594;50.994;7.126;2024-03-22T06:00:29;14.50;48.30
9118;DHT22;4594;50.994;7.126;2024-03-22T06:02:56;13.50;47.50
9118;DHT22;4594;50.994;7.126;2024-03-22T06:05:21;13.60;47.70
9118;DHT22;4594;50.994;7.126;2024-03-22T06:07:47;13.70;47.80
9118;DHT22;4594;50.994;7.126;2024-03-22T06:10:13;13.70;47.80
9118;DHT22;4594;50.994;7.126;2024-03-22T06:12:38;13.70;47.80
9118;DHT22;4594;50.994;7.126;2024-03-22T06:15:04;13.70;47.80
9118;DHT22;4594;50.994;7.126;2024-03-22T06:17:35;13.80;48.00
9118;DHT22;4594;50.994;7.126;2024-03-22T06:20:00;13.80;48.00
9118;DHT22;4594;50.994;7.126;2024-03-22T06:22:26;13.90;48.10
9118;DHT22;4594;50.994;7.126;2024-03-22T06:24:53;13.90;48.10
9118;DHT22;4594;50.994;7.126;2024-03-22T06:27:19;14.00;48.20
9118;DHT22;4594;50.994;7.126;2024-03-22T06:29:44;14.00;48.60
9118;DHT22;4594;50.994;7.126;2024-03-22T06:32:10;14.00;48.30
9118;DHT22;4594;50.994;7.126;2024-03-22T06:34:36;14.10;48.30
9118;DHT22;4594;50.994;7.126;2024-03-22T06:37:02;14.10;48.30
9118;DHT22;4594;50.994;7.126;2024-03-22T06:39:27;14.20;48.30
9118;DHT22;4594;50.994;7.126;2024-03-22T06:41:53;14.20;48.30
9118;DHT22;4594;50.994;7.126;2024-03-22T06:44:19;14.30;48.20
9118;DHT22;4594;50.994;7.126;2024-03-22T06:46:45;14.30;48.20
9118;DHT22;4594;50.994;7.126;2024-03-22T06:49:10;14.30;48.20
9118;DHT22;4594;50.994;7.126;2024-03-22T06:51:36;14.40;48.50
9118;DHT22;4594;50.994;7.126;2024-03-22T06:54:01;14.40;48.20
9118;DHT22;4594;50.994;7.126;2024-03-22T06:56:27;14.40;48.10
9118;DHT22;4594;50.994;7.126;2024-03-22T06:58:53;14.50;48.20
9118;DHT22;4594;50.994;7.126;2024-03-22T07:01:18;14.60;48.30
9118;DHT22;4594;50.994;7.126;2024-03-22T07:03:46;14.60;48.40
9118;DHT22;4594;50.994;7.126;2024-03-22T07:06:14;14.60;48.40
9118;DHT22;4594;50.994;7.126;2024-03-22T07:08:40;14.70;48.50
9118;DHT22;4594;50.994;7.126;2024-03-22T07:11:06;14.70;48.80
9118;DHT22;4594;50.994;7.126;2024-03-22T07:13:32;14.90;49.40
9118;DHT22;4594;50.994;7.126;2024-03-22T07:15:58;15.00;50.00
9118;DHT22;4594;50.994;7.126;2024-03-22T07:18:24;15.20;50.20
9118;DHT22;4594;50.994;7.126;2024-03-22T07:20:49;15.40;50.20
9118;DHT22;4594;50.994;7.126;2024-03-22T07:23:15;15.60;50.20
9118;DHT22;4594;50.994;7.126;2024-03-22T07:25:41;15.70;50.00
9118;DHT22;4594;50.994;7.126;2024-03-22T07:28:11;15.90;49.70
9118;DHT22;4594;50.994;7.126;2024-03-22T07:30:37;16.00;49.50
9118;DHT22;4594;50.994;7.126;2024-03-22T07:33:03;16.10;49.40
9118;DHT22;4594;50.994;7.126;2024-03-22T07:35:29;16.20;49.30
9118;DHT22;4594;50.994;7.126;2024-03-22T07:37:56;16.30;49.40
9118;DHT22;4594;50.994;7.126;2024-03-22T07:40:22;16.40;49.30
9118;DHT22;4594;50.994;7.126;2024-03-22T07:42:47;16.50;49.30
9118;DHT22;4594;50.994;7.126;2024-03-22T07:45:13;16.60;49.20
9118;DHT22;4594;50.994;7.126;2024-03-22T07:47:39;16.70;49.40
9118;DHT22;4594;50.994;7.126;2024-03-22T07:50:07;16.80;49.40
9118;DHT22;4594;50.994;7.126;2024-03-22T07:52:34;16.90;49.40
9118;DHT22;4594;50.994;7.126;2024-03-22T07:54:59;17.00;49.40
9118;DHT22;4594;50.994;7.126;2024-03-22T07:57:28;17.20;49.50
9118;DHT22;4594;50.994;7.126;2024-03-22T07:59:56;17.30;49.60
9118;DHT22;4594;50.994;7.126;2024-03-22T08:02:22;17.50;50.20
9118;DHT22;4594;50.994;7.126;2024-03-22T08:04:49;17.70;51.00
9118;DHT22;4594;50.994;7.126;2024-03-22T08:07:15;18.10;52.10
9118;DHT22;4594;50.994;7.126;2024-03-22T08:09:40;18.60;53.00
9118;DHT22;4594;50.994;7.126;2024-03-22T08:12:06;19.10;53.90
9118;DHT22;4594;50.994;7.126;2024-03-22T08:14:33;19.70;55.00
9118;DHT22;4594;50.994;7.126;2024-03-22T08:16:58;20.30;55.20
9118;DHT22;4594;50.994;7.126;2024-03-22T08:19:24;20.90;55.30
9118;DHT22;4594;50.994;7.126;2024-03-22T08:21:50;21.50;54.90
9118;DHT22;4594;50.994;7.126;2024-03-22T08:24:16;21.90;53.50
9118;DHT22;4594;50.994;7.126;2024-03-22T08:26:43;22.40;52.00
9118;DHT22;4594;50.994;7.126;2024-03-22T08:29:12;22.70;50.90
9118;DHT22;4594;50.994;7.126;2024-03-22T08:31:40;22.90;50.20
9118;DHT22;4594;50.994;7.126;2024-03-22T08:34:06;23.00;50.30
9118;DHT22;4594;50.994;7.126;2024-03-22T08:36:31;23.30;50.80
9118;DHT22;4594;50.994;7.126;2024-03-22T08:38:57;23.70;51.30
9118;DHT22;4594;50.994;7.126;2024-03-22T08:41:22;24.10;51.40
9118;DHT22;4594;50.994;7.126;2024-03-22T08:43:48;24.50;51.20
9118;DHT22;4594;50.994;7.126;2024-03-22T08:46:14;25.00;51.20
9118;DHT22;4594;50.994;7.126;2024-03-22T08:48:40;25.40;51.00
9118;DHT22;4594;50.994;7.126;2024-03-22T08:51:06;25.80;50.10
9118;DHT22;4594;50.994;7.126;2024-03-22T08:53:31;26.10;49.10
9118;DHT22;4594;50.994;7.126;2024-03-22T08:55:57;26.20;48.00
9118;DHT22;4594;50.994;7.126;2024-03-22T08:58:23;26.30;47.10
9118;DHT22;4594;50.994;7.126;2024-03-22T09:00:49;26.30;46.30
9118;DHT22;4594;50.994;7.126;2024-03-22T09:03:15;26.20;45.60
9118;DHT22;4594;50.994;7.126;2024-03-22T09:05:41;26.10;45.10
9118;DHT22;4594;50.994;7.126;2024-03-22T09:08:06;25.90;44.60
9118;DHT22;4594;50.994;7.126;2024-03-22T09:10:32;25.60;44.10
9118;DHT22;4594;50.994;7.126;2024-03-22T09:12:59;25.40;43.90
9118;DHT22;4594;50.994;7.126;2024-03-22T09:15:24;25.20;43.70
9118;DHT22;4594;50.994;7.126;2024-03-22T09:17:52;25.00;43.70
9118;DHT22;4594;50.994;7.126;2024-03-22T09:20:18;24.90;43.50
9118;DHT22;4594;50.994;7.126;2024-03-22T09:22:43;24.80;43.80
9118;DHT22;4594;50.994;7.126;2024-03-22T09:25:09;24.70;43.80
9118;DHT22;4594;50.994;7.126;2024-03-22T09:27:35;24.70;44.00
9118;DHT22;4594;50.994;7.126;2024-03-22T09:30:01;24.80;44.10
9118;DHT22;4594;50.994;7.126;2024-03-22T09:32:29;24.90;44.60
9118;DHT22;4594;50.994;7.126;2024-03-22T09:34:55;25.10;44.70
9118;DHT22;4594;50.994;7.126;2024-03-22T09:37:21;25.20;44.40
9118;DHT22;4594;50.994;7.126;2024-03-22T09:39:47;25.30;43.80
9118;DHT22;4594;50.994;7.126;2024-03-22T09:42:16;25.30;43.40
9118;DHT22;4594;50.994;7.126;2024-03-22T09:44:48;25.30;42.40
9118;DHT22;4594;50.994;7.126;2024-03-22T09:47:18;25.20;42.60
9118;DHT22;4594;50.994;7.126;2024-03-22T09:49:45;25.20;42.10
9118;DHT22;4594;50.994;7.126;2024-03-22T09:52:14;25.10;42.60
9118;DHT22;4594;50.994;7.126;2024-03-22T09:54:41;25.10;42.70
9118;DHT22;4594;50.994;7.126;2024-03-22T09:57:11;25.20;42.90
9118;DHT22;4594;50.994;7.126;2024-03-22T09:59:45;25.30;42.60
9118;DHT22;4594;50.994;7.126;2024-03-22T10:02:12;25.30;42.60
9118;DHT22;4594;50.994;7.126;2024-03-22T10:04:40;25.50;42.90
9118;DHT22;4594;50.994;7.126;2024-03-22T10:07:06;25.60;42.70
9118;DHT22;4594;50.994;7.126;2024-03-22T10:09:34;25.60;42.50
9118;DHT22;4594;50.994;7.126;2024-03-22T10:12:00;25.80;42.50
9118;DHT22;4594;50.994;7.126;2024-03-22T10:14:26;25.90;42.50
9118;DHT22;4594;50.994;7.126;2024-03-22T10:16:52;25.90;42.40
9118;DHT22;4594;50.994;7.126;2024-03-22T10:19:22;26.00;42.30
9118;DHT22;4594;50.994;7.126;2024-03-22T10:22:04;26.00;42.10
9118;DHT22;4594;50.994;7.126;2024-03-22T10:24:31;26.00;40.60
9118;DHT22;4594;50.994;7.126;2024-03-22T10:26:58;26.00;41.60
9118;DHT22;4594;50.994;7.126;2024-03-22T10:29:24;25.90;41.40
9118;DHT22;4594;50.994;7.126;2024-03-22T10:31:54;25.90;41.10
9118;DHT22;4594;50.994;7.126;2024-03-22T10:34:21;25.70;40.40
9118;DHT22;4594;50.994;7.126;2024-03-22T10:36:48;25.60;40.60
9118;DHT22;4594;50.994;7.126;2024-03-22T10:39:17;25.50;40.30
9118;DHT22;4594;50.994;7.126;2024-03-22T10:41:48;25.30;40.00
9118;DHT22;4594;50.994;7.126;2024-03-22T10:44:14;25.10;40.00
9118;DHT22;4594;50.994;7.126;2024-03-22T10:46:45;24.90;39.80
9118;DHT22;4594;50.994;7.126;2024-03-22T10:49:18;24.70;39.30
9118;DHT22;4594;50.994;7.126;2024-03-22T10:51:50;24.50;39.30
9118;DHT22;4594;50.994;7.126;2024-03-22T10:54:24;24.40;39.70
9118;DHT22;4594;50.994;7.126;2024-03-22T10:56:53;24.20;39.50
9118;DHT22;4594;50.994;7.126;2024-03-22T10:59:23;24.10;39.60
9118;DHT22;4594;50.994;7.126;2024-03-22T11:02:04;23.90;39.50
9118;DHT22;4594;50.994;7.126;2024-03-22T11:04:32;23.80;39.60
9118;DHT22;4594;50.994;7.126;2024-03-22T11:06:59;23.70;39.60
9118;DHT22;4594;50.994;7.126;2024-03-22T11:09:26;23.70;39.70
9118;DHT22;4594;50.994;7.126;2024-03-22T11:11:53;23.50;39.70
9118;DHT22;4594;50.994;7.126;2024-03-22T11:14:19;23.50;39.70
9118;DHT22;4594;50.994;7.126;2024-03-22T11:16:49;23.40;39.70
9118;DHT22;4594;50.994;7.126;2024-03-22T11:19:15;23.40;39.70
9118;DHT22;4594;50.994;7.126;2024-03-22T11:21:41;23.40;39.70
9118;DHT22;4594;50.994;7.126;2024-03-22T11:24:07;23.30;39.60
9118;DHT22;4594;50.994;7.126;2024-03-22T11:26:33;23.20;39.60
9118;DHT22;4594;50.994;7.126;2024-03-22T11:29:00;23.20;39.50
9118;DHT22;4594;50.994;7.126;2024-03-22T11:31:27;23.10;39.50
9118;DHT22;4594;50.994;7.126;2024-03-22T11:33:53;23.10;39.50
9118;DHT22;4594;50.994;7.126;2024-03-22T11:36:20;23.00;39.60
9118;DHT22;4594;50.994;7.126;2024-03-22T11:38:46;23.00;39.50
9118;DHT22;4594;50.994;7.126;2024-03-22T11:41:25;22.90;39.30
9118;DHT22;4594;50.994;7.126;2024-03-22T11:43:54;22.90;39.00
9118;DHT22;4594;50.994;7.126;2024-03-22T11:46:20;22.70;39.20
9118;DHT22;4594;50.994;7.126;2024-03-22T11:48:51;22.70;39.30
9118;DHT22;4594;50.994;7.126;2024-03-22T11:51:18;22.60;39.10
9118;DHT22;4594;50.994;7.126;2024-03-22T11:53:51;22.60;39.40
9118;DHT22;4594;50.994;7.126;2024-03-22T11:56:18;22.70;39.20
9118;DHT22;4594;50.994;7.126;2024-03-22T11:58:49;22.70;39.70
9118;DHT22;4594;50.994;7.126;2024-03-22T12:01:15;22.70;39.60
9118;DHT22;4594;50.994;7.126;2024-03-22T12:03:45;22.70;39.50
9118;DHT22;4594;50.994;7.126;2024-03-22T12:06:11;22.70;39.30
9118;DHT22;4594;50.994;7.126;2024-03-22T12:08:38;22.70;39.40
9118;DHT22;4594;50.994;7.126;2024-03-22T12:11:07;22.70;39.40
9118;DHT22;4594;50.994;7.126;2024-03-22T12:13:34;22.60;39.30
9118;DHT22;4594;50.994;7.126;2024-03-22T12:16:00;22.60;39.30
9118;DHT22;4594;50.994;7.126;2024-03-22T12:18:27;22.50;39.30
9118;DHT22;4594;50.994;7.126;2024-03-22T12:20:53;22.60;39.40
9118;DHT22;4594;50.994;7.126;2024-03-22T12:23:18;22.60;39.30
9118;DHT22;4594;50.994;7.126;2024-03-22T12:25:44;22.60;39.30
9118;DHT22;4594;50.994;7.126;2024-03-22T12:28:11;22.50;39.10
9118;DHT22;4594;50.994;7.126;2024-03-22T12:30:36;22.50;39.00
9118;DHT22;4594;50.994;7.126;2024-03-22T12:33:02;22.50;38.90
9118;DHT22;4594;50.994;7.126;2024-03-22T12:35:28;22.50;38.80
9118;DHT22;4594;50.994;7.126;2024-03-22T12:37:58;22.50;38.80
9118;DHT22;4594;50.994;7.126;2024-03-22T12:40:23;22.40;38.70
9118;DHT22;4594;50.994;7.126;2024-03-22T12:42:49;22.40;38.70
9118;DHT22;4594;50.994;7.126;2024-03-22T12:45:15;22.30;38.50
9118;DHT22;4594;50.994;7.126;2024-03-22T12:47:40;22.20;38.50
9118;DHT22;4594;50.994;7.126;2024-03-22T12:50:06;22.20;38.50
9118;DHT22;4594;50.994;7.126;2024-03-22T12:52:33;22.10;38.50
9118;DHT22;4594;50.994;7.126;2024-03-22T12:54:58;22.10;38.50
9118;DHT22;4594;50.994;7.126;2024-03-22T12:57:24;22.10;38.40
9118;DHT22;4594;50.994;7.126;2024-03-22T12:59:50;22.10;38.30
9118;DHT22;4594;50.994;7.126;2024-03-22T13:02:15;21.90;38.20
9118;DHT22;4594;50.994;7.126;2024-03-22T13:04:41;21.90;38.20
9118;DHT22;4594;50.994;7.126;2024-03-22T13:07:08;21.80;38.10
9118;DHT22;4594;50.994;7.126;2024-03-22T13:09:34;21.80;38.10
9118;DHT22;4594;50.994;7.126;2024-03-22T13:11:59;21.70;38.00
9118;DHT22;4594;50.994;7.126;2024-03-22T13:14:25;21.70;38.10
9118;DHT22;4594;50.994;7.126;2024-03-22T13:16:51;21.60;38.00
9118;DHT22;4594;50.994;7.126;2024-03-22T13:19:17;21.70;38.10
9118;DHT22;4594;50.994;7.126;2024-03-22T13:21:43;21.50;38.00
9118;DHT22;4594;50.994;7.126;2024-03-22T13:24:13;21.50;38.20
9118;DHT22;4594;50.994;7.126;2024-03-22T13:26:38;21.50;38.30
9118;DHT22;4594;50.994;7.126;2024-03-22T13:29:04;21.50;38.40
9118;DHT22;4594;50.994;7.126;2024-03-22T13:31:30;21.50;38.40
9118;DHT22;4594;50.994;7.126;2024-03-22T13:33:55;21.50;38.20
9118;DHT22;4594;50.994;7.126;2024-03-22T13:36:21;21.50;38.10
9118;DHT22;4594;50.994;7.126;2024-03-22T13:38:48;21.50;38.00
9118;DHT22;4594;50.994;7.126;2024-03-22T13:41:13;21.50;37.90
9118;DHT22;4594;50.994;7.126;2024-03-22T13:43:39;21.50;37.90
9118;DHT22;4594;50.994;7.126;2024-03-22T13:46:05;21.40;37.70
9118;DHT22;4594;50.994;7.126;2024-03-22T13:48:31;21.40;37.80
9118;DHT22;4594;50.994;7.126;2024-03-22T13:50:57;21.40;37.80
9118;DHT22;4594;50.994;7.126;2024-03-22T13:53:23;21.40;37.80
9118;DHT22;4594;50.994;7.126;2024-03-22T13:55:52;21.40;38.20
9118;DHT22;4594;50.994;7.126;2024-03-22T13:58:18;21.40;37.70
9118;DHT22;4594;50.994;7.126;2024-03-22T14:00:44;21.40;37.90
9118;DHT22;4594;50.994;7.126;2024-03-22T14:03:10;21.30;37.90
9118;DHT22;4594;50.994;7.126;2024-03-22T14:05:35;21.30;37.80
9118;DHT22;4594;50.994;7.126;2024-03-22T14:08:01;21.30;37.90
9118;DHT22;4594;50.994;7.126;2024-03-22T14:10:29;21.30;37.90
9118;DHT22;4594;50.994;7.126;2024-03-22T14:12:58;21.30;38.00
9118;DHT22;4594;50.994;7.126;2024-03-22T14:15:24;21.30;37.90
9118;DHT22;4594;50.994;7.126;2024-03-22T14:17:52;21.30;37.90
9118;DHT22;4594;50.994;7.126;2024-03-22T14:20:18;21.30;37.90
9118;DHT22;4594;50.994;7.126;2024-03-22T14:22:44;21.30;38.00
9118;DHT22;4594;50.994;7.126;2024-03-22T14:25:11;21.30;38.00
9118;DHT22;4594;50.994;7.126;2024-03-22T14:27:37;21.30;38.00
9118;DHT22;4594;50.994;7.126;2024-03-22T14:30:06;21.30;38.10
9118;DHT22;4594;50.994;7.126;2024-03-22T14:32:34;21.30;37.90
9118;DHT22;4594;50.994;7.126;2024-03-22T14:35:00;21.40;38.10
9118;DHT22;4594;50.994;7.126;2024-03-22T14:37:26;21.20;38.00
9118;DHT22;4594;50.994;7.126;2024-03-22T14:39:52;21.30;38.10
9118;DHT22;4594;50.994;7.126;2024-03-22T14:42:18;21.30;38.10
9118;DHT22;4594;50.994;7.126;2024-03-22T14:44:44;21.20;38.00
9118;DHT22;4594;50.994;7.126;2024-03-22T14:47:10;21.20;37.90
9118;DHT22;4594;50.994;7.126;2024-03-22T14:49:36;21.10;37.90
9118;DHT22;4594;50.994;7.126;2024-03-22T14:52:01;21.10;37.90
9118;DHT22;4594;50.994;7.126;2024-03-22T14:54:27;21.10;37.80
9118;DHT22;4594;50.994;7.126;2024-03-22T14:56:53;21.00;37.90
9118;DHT22;4594;50.994;7.126;2024-03-22T14:59:21;21.00;38.00
9118;DHT22;4594;50.994;7.126;2024-03-22T15:01:47;21.00;38.10
9118;DHT22;4594;50.994;7.126;2024-03-22T15:04:12;21.00;38.10
9118;DHT22;4594;50.994;7.126;2024-03-22T15:06:38;20.90;38.10
9118;DHT22;4594;50.994;7.126;2024-03-22T15:09:04;20.90;38.10
9118;DHT22;4594;50.994;7.126;2024-03-22T15:11:35;21.00;38.30
9118;DHT22;4594;50.994;7.126;2024-03-22T15:14:01;20.90;38.10
9118;DHT22;4594;50.994;7.126;2024-03-22T15:16:28;21.00;38.20
9118;DHT22;4594;50.994;7.126;2024-03-22T15:18:54;20.90;38.20
9118;DHT22;4594;50.994;7.126;2024-03-22T15:21:19;20.90;38.20
9118;DHT22;4594;50.994;7.126;2024-03-22T15:23:46;20.80;38.20
9118;DHT22;4594;50.994;7.126;2024-03-22T15:26:12;20.80;38.10
9118;DHT22;4594;50.994;7.126;2024-03-22T15:28:38;20.90;38.10
9118;DHT22;4594;50.994;7.126;2024-03-22T15:31:06;20.70;38.00
9118;DHT22;4594;50.994;7.126;2024-03-22T15:33:32;20.60;38.00
9118;DHT22;4594;50.994;7.126;2024-03-22T15:35:58;20.60;38.00
9118;DHT22;4594;50.994;7.126;2024-03-22T15:38:24;20.50;38.00
9118;DHT22;4594;50.994;7.126;2024-03-22T15:40:50;20.40;37.90
9118;DHT22;4594;50.994;7.126;2024-03-22T15:43:17;20.40;38.00
9118;DHT22;4594;50.994;7.126;2024-03-22T15:45:43;20.30;38.00
9118;DHT22;4594;50.994;7.126;2024-03-22T15:48:09;20.20;38.10
9118;DHT22;4594;50.994;7.126;2024-03-22T15:50:35;20.30;38.20
9118;DHT22;4594;50.994;7.126;2024-03-22T15:53:02;20.10;38.10
9118;DHT22;4594;50.994;7.126;2024-03-22T15:55:27;20.00;38.00
9118;DHT22;4594;50.994;7.126;2024-03-22T15:57:56;20.00;38.00